Time;durP1;ratioP1;P1;durP2;ratioP2;P2;SDS_P1;SDS_P2;PMS_P1;PMS_P2;Temp;Humidity;BMP_temperature;BMP_pressure;BME280_temperature;BME280_humidity;BME280_pressure;Samples;Min_cycle;Max_cycle;Signal;HPM_P1;HPM_P2
2021/05/14 00:00:48;;;;;;;1.13;0.82;;;16.30;79.10;;;;;;4981177;28;96570;-46
2021/05/14 00:03:20;;;;;;;2.75;1.13;;;16.30;79.10;;;;;;4989717;28;95518;-45
2021/05/14 00:05:50;;;;;;;3.15;1.13;;;16.30;79.10;;;;;;4982155;28;95716;-44
2021/05/14 00:08:20;;;;;;;2.42;1.15;;;16.30;79.00;;;;;;4988943;28;95814;-43
2021/05/14 00:10:51;;;;;;;4.28;1.17;;;16.40;79.10;;;;;;4983516;28;96436;-46
2021/05/14 00:13:23;;;;;;;3.92;1.40;;;16.40;78.90;;;;;;4986734;28;96078;-43
2021/05/14 00:15:54;;;;;;;;;;;16.40;78.80;;;;;;4981204;28;97972;-44
2021/05/14 00:18:25;;;;;;;5.40;1.92;;;16.40;78.50;;;;;;4986998;28;96016;-44
2021/05/14 00:20:55;;;;;;;2.55;1.17;;;16.50;78.70;;;;;;4984652;28;96542;-43
2021/05/14 00:23:25;;;;;;;4.32;1.80;;;16.50;78.50;;;;;;4979259;28;95518;-43
2021/05/14 00:25:55;;;;;;;8.35;2.33;;;16.50;78.60;;;;;;4987992;28;95431;-42
2021/05/14 00:28:25;;;;;;;3.17;1.88;;;16.60;78.30;;;;;;4958392;28;95857;-42
2021/05/14 00:30:57;;;;;;;8.98;2.50;;;16.60;78.30;;;;;;4982257;28;96310;-43
2021/05/14 00:33:29;;;;;;;3.95;1.75;;;16.60;78.30;;;;;;4999825;28;95775;-42
2021/05/14 00:36:01;;;;;;;;;;;16.60;78.20;;;;;;4989539;28;95888;-42
2021/05/14 00:38:31;;;;;;;2.40;1.83;;;16.60;78.10;;;;;;4986676;28;95671;-44
2021/05/14 00:41:03;;;;;;;5.23;1.97;;;16.60;77.90;;;;;;4987745;28;95888;-43
2021/05/14 00:43:36;;;;;;;2.53;1.83;;;16.60;77.40;;;;;;4983773;28;95307;-42
2021/05/14 00:46:07;;;;;;;4.20;1.42;;;16.60;77.50;;;;;;4984112;28;96118;-43
2021/05/14 00:48:38;;;;;;;4.60;2.00;;;16.70;77.50;;;;;;4986616;28;95584;-43
2021/05/14 00:51:09;;;;;;;3.00;1.85;;;16.80;77.00;;;;;;4989727;28;95897;-41
2021/05/14 00:53:40;;;;;;;3.97;1.65;;;16.80;77.00;;;;;;4986377;28;95323;-42
2021/05/14 00:56:14;;;;;;;4.82;1.67;;;16.90;77.00;;;;;;4970793;28;95331;-40
2021/05/14 00:58:45;;;;;;;4.35;1.33;;;16.90;76.90;;;;;;4984438;28;95433;-40
2021/05/14 01:01:17;;;;;;;3.70;1.63;;;17.00;76.70;;;;;;4982836;28;95914;-42
2021/05/14 01:03:48;;;;;;;4.53;1.92;;;17.00;76.60;;;;;;4984319;28;96339;-42
2021/05/14 01:06:18;;;;;;;3.05;1.40;;;17.10;76.20;;;;;;4988795;28;95629;-41
2021/05/14 01:08:49;;;;;;;5.63;1.85;;;17.10;76.20;;;;;;4986023;28;95602;-43
2021/05/14 01:11:20;;;;;;;5.03;1.48;;;17.20;75.90;;;;;;4981117;28;99138;-42
2021/05/14 01:13:53;;;;;;;4.55;1.90;;;17.20;75.90;;;;;;4985376;28;96647;-40
2021/05/14 01:16:24;;;;;;;;;;;17.20;75.80;;;;;;4982941;28;95868;-43
2021/05/14 01:18:55;;;;;;;3.90;2.10;;;17.20;75.70;;;;;;4985145;28;101863;-42
2021/05/14 01:21:27;;;;;;;3.70;2.17;;;17.20;75.80;;;;;;4987759;28;96068;-43
2021/05/14 01:23:59;;;;;;;2.72;1.60;;;17.20;75.70;;;;;;4983158;28;96104;-43
2021/05/14 01:26:30;;;;;;;3.28;1.40;;;17.20;75.70;;;;;;4969357;28;95950;-42
2021/05/14 01:29:04;;;;;;;3.90;1.70;;;17.20;75.50;;;;;;4985639;28;95926;-40
2021/05/14 01:31:34;;;;;;;3.70;1.63;;;17.30;75.60;;;;;;4984250;28;96418;-42
2021/05/14 01:34:07;;;;;;;3.15;1.50;;;17.30;75.40;;;;;;4983173;28;96092;-42
2021/05/14 01:36:39;;;;;;;2.45;1.25;;;17.30;75.60;;;;;;4987680;28;95589;-42
2021/05/14 01:39:16;;;;;;;3.08;1.70;;;17.40;75.50;;;;;;4985571;28;95756;-41
2021/05/14 01:41:47;;;;;;;2.42;1.70;;;17.40;75.50;;;;;;4986847;28;95869;-41
2021/05/14 01:44:18;;;;;;;2.47;1.83;;;17.40;75.30;;;;;;4984788;28;95319;-40
2021/05/14 01:46:50;;;;;;;5.40;1.40;;;17.50;75.10;;;;;;4984605;28;95570;-41
2021/05/14 01:49:21;;;;;;;2.92;1.40;;;17.50;75.10;;;;;;4988840;28;96175;-41
2021/05/14 01:51:52;;;;;;;1.95;1.33;;;17.50;75.10;;;;;;4985011;28;96000;-40
2021/05/14 01:54:24;;;;;;;4.53;1.50;;;17.60;74.80;;;;;;4987652;28;96071;-47
2021/05/14 01:56:56;;;;;;;3.17;1.65;;;17.60;74.60;;;;;;4985881;28;96374;-47
2021/05/14 01:59:27;;;;;;;;;;;17.60;74.60;;;;;;4988710;28;95508;-47
2021/05/14 02:01:58;;;;;;;4.20;1.48;;;17.60;74.50;;;;;;4963051;28;98894;-46
2021/05/14 02:04:30;;;;;;;4.85;1.42;;;17.60;74.40;;;;;;4986987;28;95283;-46
2021/05/14 02:07:03;;;;;;;1.73;1.23;;;17.70;74.50;;;;;;4982373;28;100151;-47
2021/05/14 02:09:34;;;;;;;2.75;1.30;;;17.70;74.30;;;;;;4985703;28;95756;-47
2021/05/14 02:12:07;;;;;;;3.22;1.23;;;17.70;74.30;;;;;;4983440;28;96622;-47
2021/05/14 02:14:38;;;;;;;4.68;1.23;;;17.80;74.10;;;;;;4986277;28;95918;-46
2021/05/14 02:17:09;;;;;;;2.45;1.30;;;17.80;74.20;;;;;;4958748;28;98498;-44
2021/05/14 02:19:40;;;;;;;3.15;1.15;;;17.90;73.90;;;;;;4984875;28;95266;-42
2021/05/14 02:22:12;;;;;;;2.78;1.38;;;17.90;73.90;;;;;;4979635;28;95912;-42
2021/05/14 02:24:43;;;;;;;4.07;2.00;;;17.90;73.80;;;;;;4984421;28;95864;-43
2021/05/14 02:27:13;;;;;;;3.53;1.38;;;18.00;73.90;;;;;;4980626;28;95937;-41
2021/05/14 02:29:46;;;;;;;;;;;18.00;73.60;;;;;;4983459;28;95852;-42
2021/05/14 02:32:17;;;;;;;2.50;1.60;;;18.00;73.50;;;;;;4960356;28;96830;-41
2021/05/14 02:34:48;;;;;;;2.75;1.05;;;18.10;73.60;;;;;;4983279;28;95910;-42
2021/05/14 02:37:19;;;;;;;3.05;1.20;;;18.10;73.50;;;;;;4980080;28;96385;-44
2021/05/14 02:39:50;;;;;;;8.47;1.43;;;18.20;73.60;;;;;;4998457;28;96484;-42
2021/05/14 02:42:21;;;;;;;2.00;0.80;;;18.30;73.70;;;;;;4983058;28;96623;-43
2021/05/14 02:44:52;;;;;;;;;;;18.40;73.50;;;;;;4967754;28;95896;-40
2021/05/14 02:47:23;;;;;;;2.15;0.90;;;18.50;73.60;;;;;;4983479;28;95888;-44
2021/05/14 02:49:54;;;;;;;2.20;1.40;;;18.60;73.30;;;;;;4987032;28;95750;-41
2021/05/14 02:52:25;;;;;;;2.35;1.10;;;18.70;73.10;;;;;;4967400;28;97303;-43
2021/05/14 02:54:56;;;;;;;5.23;1.23;;;18.80;73.40;;;;;;4968277;28;96137;-44
2021/05/14 02:57:34;;;;;;;1.00;0.88;;;18.90;73.50;;;;;;4986027;28;95362;-43
2021/05/14 03:00:07;;;;;;;1.40;1.30;;;19.10;73.40;;;;;;4986189;28;95855;-43
2021/05/14 03:02:39;;;;;;;3.42;1.10;;;19.10;73.30;;;;;;4984038;28;97444;-42
2021/05/14 03:05:11;;;;;;;1.90;1.20;;;19.30;72.60;;;;;;4983619;28;97720;-43
2021/05/14 03:07:42;;;;;;;3.97;1.45;;;19.30;72.60;;;;;;4985217;28;95831;-42
2021/05/14 03:10:14;;;;;;;2.53;1.30;;;19.40;72.30;;;;;;4982433;28;95570;-41
2021/05/14 03:12:45;;;;;;;3.67;1.23;;;19.50;72.00;;;;;;4965661;28;97175;-40
2021/05/14 03:15:15;;;;;;;1.93;1.30;;;19.40;70.90;;;;;;4974374;28;95833;-41
2021/05/14 03:17:47;;;;;;;2.25;1.40;;;19.30;70.90;;;;;;4983621;28;95315;-39
2021/05/14 03:20:17;;;;;;;2.03;1.02;;;19.20;70.90;;;;;;4981825;28;95799;-40
2021/05/14 03:22:47;;;;;;;3.67;1.35;;;19.20;70.90;;;;;;4984543;28;97041;-46
2021/05/14 03:25:17;;;;;;;2.75;1.40;;;19.10;70.90;;;;;;4981860;28;96414;-47
2021/05/14 03:27:47;;;;;;;2.95;1.38;;;19.10;70.90;;;;;;4984674;28;95810;-47
2021/05/14 03:30:20;;;;;;;2.70;1.30;;;19.10;70.90;;;;;;4978978;28;98428;-48
2021/05/14 03:32:50;;;;;;;2.40;1.33;;;19.10;70.90;;;;;;4982592;28;96543;-47
2021/05/14 03:35:22;;;;;;;4.43;1.40;;;19.00;70.80;;;;;;4964067;28;96173;-47
2021/05/14 03:37:53;;;;;;;3.05;1.13;;;19.00;71.20;;;;;;4985446;28;96393;-41
2021/05/14 03:43:01;;;;;;;2.35;1.10;;;19.30;71.40;;;;;;4988693;28;96245;-41
2021/05/14 03:45:34;;;;;;;3.80;1.45;;;19.40;71.30;;;;;;4982996;28;96234;-42
2021/05/14 03:48:17;;;;;;;2.45;1.17;;;19.60;71.10;;;;;;4988521;28;95471;-41
2021/05/14 03:50:53;;;;;;;2.65;1.10;;;19.70;70.90;;;;;;4987216;28;96574;-42
2021/05/14 03:53:24;;;;;;;3.17;1.63;;;19.70;70.60;;;;;;4982435;28;96785;-43
2021/05/14 03:55:55;;;;;;;;;;;19.80;70.40;;;;;;4987443;28;95802;-43
2021/05/14 03:58:28;;;;;;;1.00;0.90;;;19.90;70.30;;;;;;4992878;28;95900;-43
2021/05/14 04:01:04;;;;;;;2.58;1.30;;;19.90;70.20;;;;;;4967212;28;96186;-41
2021/05/14 04:03:35;;;;;;;2.55;1.02;;;19.90;70.30;;;;;;4988352;28;95993;-40
2021/05/14 04:06:07;;;;;;;3.15;1.42;;;20.00;70.10;;;;;;4985991;28;95412;-39
2021/05/14 04:08:37;;;;;;;3.10;1.20;;;20.00;69.90;;;;;;4990235;28;95655;-39
2021/05/14 04:11:28;;;;;;;4.63;1.77;;;20.10;69.90;;;;;;4982840;28;95414;-42
2021/05/14 04:16:48;;;;;;;3.30;1.73;;;20.10;69.60;;;;;;4982840;28;95466;-41
2021/05/14 04:19:20;;;;;;;2.15;1.75;;;20.10;69.70;;;;;;4977411;28;96096;-42
2021/05/14 04:21:51;;;;;;;2.15;1.08;;;20.10;69.80;;;;;;4981450;28;96022;-42
2021/05/14 04:24:23;;;;;;;2.05;1.20;;;20.20;69.70;;;;;;4977393;28;96066;-41
2021/05/14 04:26:57;;;;;;;2.97;1.40;;;20.20;69.40;;;;;;4981713;28;96127;-41
2021/05/14 04:29:31;;;;;;;1.17;0.77;;;20.30;69.60;;;;;;4984962;28;95804;-42
2021/05/14 04:32:02;;;;;;;1.42;0.80;;;20.30;69.60;;;;;;4973602;28;96026;-41
2021/05/14 04:34:33;;;;;;;;;;;20.40;69.50;;;;;;4999761;28;98579;-42
2021/05/14 04:37:11;;;;;;;4.10;1.05;;;20.40;69.60;;;;;;4981429;28;95774;-42
2021/05/14 04:39:42;;;;;;;1.63;0.90;;;20.50;69.60;;;;;;4984140;28;96640;-42
2021/05/14 04:42:13;;;;;;;1.52;1.05;;;20.50;69.50;;;;;;4982490;28;96164;-40
2021/05/14 04:44:45;;;;;;;2.20;1.30;;;20.60;69.50;;;;;;4983990;28;96493;-42
2021/05/14 04:47:16;;;;;;;1.13;1.08;;;20.70;69.40;;;;;;4978354;28;96893;-40
2021/05/14 04:49:47;;;;;;;2.72;1.42;;;20.70;69.40;;;;;;4986277;28;95910;-42
2021/05/14 04:52:22;;;;;;;2.53;1.00;;;20.70;67.70;;;;;;4982251;28;95790;-41
2021/05/14 04:54:57;;;;;;;4.40;1.95;;;20.50;66.80;;;;;;4983880;28;95911;-44
2021/05/14 04:57:30;;;;;;;3.78;1.33;;;20.30;67.20;;;;;;4993922;28;97488;-41
2021/05/14 05:00:02;;;;;;;3.63;1.23;;;20.20;67.20;;;;;;4985370;28;96486;-41
2021/05/14 05:02:33;;;;;;;2.75;1.33;;;20.20;67.50;;;;;;4980990;28;97523;-41
2021/05/14 05:05:05;;;;;;;2.17;1.20;;;20.10;67.70;;;;;;4983922;28;95890;-42
2021/05/14 05:07:35;;;;;;;;;;;20.00;67.80;;;;;;4981674;28;95805;-41
2021/05/14 05:10:07;;;;;;;3.70;1.30;;;19.90;68.00;;;;;;4983544;28;95864;-41
2021/05/14 05:12:41;;;;;;;3.40;1.08;;;19.80;68.20;;;;;;4984032;28;95866;-41
2021/05/14 05:15:15;;;;;;;2.55;0.90;;;19.80;68.50;;;;;;4980012;28;95890;-41
2021/05/14 05:17:47;;;;;;;4.20;1.50;;;19.80;68.60;;;;;;4982839;28;102474;-41
2021/05/14 05:20:16;;;;;;;;;;;19.70;68.60;;;;;;4981814;28;95972;-40
2021/05/14 05:22:46;;;;;;;2.72;1.13;;;19.70;68.90;;;;;;4985546;28;95831;-40
2021/05/14 05:25:17;;;;;;;3.55;1.50;;;19.70;69.00;;;;;;4980157;28;96110;-40
2021/05/14 05:27:48;;;;;;;1.77;0.95;;;19.90;68.90;;;;;;4982547;28;96150;-40
2021/05/14 05:30:22;;;;;;;1.65;1.17;;;19.90;68.80;;;;;;4975710;28;96100;-48
2021/05/14 05:32:53;;;;;;;2.15;1.10;;;19.90;68.70;;;;;;4983377;28;96509;-47
2021/05/14 05:35:23;;;;;;;3.80;1.75;;;20.00;68.80;;;;;;4972470;28;97699;-47
2021/05/14 05:37:54;;;;;;;2.42;1.00;;;20.00;68.80;;;;;;4983392;28;96268;-46
2021/05/14 05:40:24;;;;;;;;;;;19.90;68.20;;;;;;4979802;28;95898;-47
2021/05/14 05:42:55;;;;;;;3.33;1.23;;;19.80;68.30;;;;;;4984138;28;95419;-47
2021/05/14 05:45:32;;;;;;;3.45;1.40;;;19.70;68.60;;;;;;4975615;28;96000;-40
2021/05/14 05:48:02;;;;;;;1.90;0.77;;;19.70;69.00;;;;;;4983121;28;95441;-41
2021/05/14 05:50:33;;;;;;;1.35;0.80;;;19.70;69.40;;;;;;4980865;28;95894;-40
2021/05/14 05:53:05;;;;;;;3.10;1.30;;;19.80;69.40;;;;;;4984790;28;97035;-39
2021/05/14 05:55:38;;;;;;;1.88;0.75;;;19.90;69.40;;;;;;4964217;28;96287;-39
2021/05/14 05:58:16;;;;;;;2.55;1.02;;;20.00;69.40;;;;;;4967196;28;97095;-39
2021/05/14 06:00:47;;;;;;;1.17;0.73;;;20.00;69.40;;;;;;4977736;28;96425;-38
2021/05/14 06:03:18;;;;;;;1.48;0.73;;;20.10;69.50;;;;;;4974681;28;96136;-40
2021/05/14 06:05:48;;;;;;;1.52;1.05;;;20.20;69.40;;;;;;4979506;28;96044;-39
2021/05/14 06:08:18;;;;;;;1.33;1.10;;;20.20;69.40;;;;;;4983652;28;95751;-39
2021/05/14 06:10:51;;;;;;;4.72;1.40;;;20.20;69.40;;;;;;4978753;28;95746;-39
2021/05/14 06:13:24;;;;;;;2.80;1.20;;;20.20;69.40;;;;;;4983825;28;96024;-39
2021/05/14 06:15:58;;;;;;;1.95;1.40;;;20.30;69.30;;;;;;4958824;28;96659;-41
2021/05/14 06:18:37;;;;;;;3.25;1.52;;;20.20;68.40;;;;;;4982791;28;95470;-39
2021/05/14 06:21:07;;;;;;;1.65;1.00;;;20.00;68.00;;;;;;4981911;28;96429;-40
2021/05/14 06:23:37;;;;;;;3.78;0.98;;;19.90;68.40;;;;;;4984914;28;95793;-40
2021/05/14 06:26:08;;;;;;;4.68;1.27;;;19.80;68.70;;;;;;4980983;28;96427;-39
2021/05/14 06:28:38;;;;;;;;;;;19.70;69.10;;;;;;4984274;28;95724;-41
2021/05/14 06:31:09;;;;;;;3.78;1.10;;;19.60;69.30;;;;;;4978125;28;95782;-46
2021/05/14 06:33:41;;;;;;;2.33;1.13;;;19.50;69.30;;;;;;4965803;28;96505;-40
2021/05/14 06:36:13;;;;;;;1.23;1.05;;;19.50;69.40;;;;;;4978119;28;97367;-41
2021/05/14 06:38:43;;;;;;;2.95;1.55;;;19.40;69.60;;;;;;4998509;28;96080;-39
2021/05/14 06:41:13;;;;;;;2.45;0.80;;;19.40;69.80;;;;;;4981996;28;96501;-40
2021/05/14 06:43:45;;;;;;;1.17;0.70;;;19.30;69.80;;;;;;4984456;28;95747;-40
2021/05/14 06:46:16;;;;;;;2.67;1.02;;;19.30;70.00;;;;;;4979194;28;97045;-39
2021/05/14 06:48:47;;;;;;;1.13;1.02;;;19.20;70.10;;;;;;4981261;28;97725;-44
2021/05/14 06:51:17;;;;;;;1.80;1.00;;;19.20;70.30;;;;;;4965604;28;95434;-41
2021/05/14 06:53:50;;;;;;;3.10;1.52;;;19.10;70.40;;;;;;4995866;28;96233;-41
2021/05/14 06:56:24;;;;;;;2.40;0.90;;;19.10;70.50;;;;;;4984078;28;96435;-42
2021/05/14 06:58:56;;;;;;;0.73;0.57;;;19.10;70.70;;;;;;4980947;28;95745;-41
2021/05/14 07:01:34;;;;;;;0.80;0.80;;;19.00;70.70;;;;;;4981531;28;95746;-41
2021/05/14 07:04:05;;;;;;;0.70;0.70;;;18.90;70.80;;;;;;4981302;28;96023;-43
2021/05/14 07:06:35;;;;;;;0.70;0.70;;;18.90;71.00;;;;;;4983121;28;97419;-41
2021/05/14 07:09:06;;;;;;;10.40;0.85;;;18.90;71.00;;;;;;4979357;28;98160;-42
2021/05/14 07:11:43;;;;;;;1.52;1.02;;;19.00;70.90;;;;;;4966567;28;96053;-41
2021/05/14 07:14:15;;;;;;;3.67;1.08;;;18.90;70.80;;;;;;4963238;28;96529;-40
2021/05/14 07:16:46;;;;;;;2.70;0.88;;;18.90;70.90;;;;;;4981479;28;96540;-40
2021/05/14 07:19:19;;;;;;;3.13;1.30;;;18.90;70.80;;;;;;4982998;28;95959;-41
2021/05/14 07:21:50;;;;;;;1.45;0.90;;;18.90;70.80;;;;;;4987587;28;96550;-48
2021/05/14 07:24:20;;;;;;;3.33;1.20;;;18.90;70.80;;;;;;4975227;28;96062;-41
2021/05/14 07:26:51;;;;;;;1.38;1.00;;;18.90;71.00;;;;;;4967110;28;98386;-42
2021/05/14 07:29:23;;;;;;;2.63;0.95;;;18.90;71.00;;;;;;4965823;28;95952;-42
2021/05/14 07:31:53;;;;;;;3.07;1.07;;;18.90;70.80;;;;;;4984425;28;95756;-41
2021/05/14 07:34:24;;;;;;;;;;;18.90;70.80;;;;;;4985429;28;95915;-43
2021/05/14 07:37:07;;;;;;;2.63;0.97;;;18.90;70.70;;;;;;4993695;28;96353;-42
2021/05/14 07:39:43;;;;;;;3.80;1.13;;;18.70;71.10;;;;;;4968895;28;97765;-42
2021/05/14 07:42:15;;;;;;;6.53;0.90;;;18.50;71.30;;;;;;4989282;28;95865;-42
2021/05/14 07:44:46;;;;;;;1.50;1.00;;;18.40;71.90;;;;;;4987321;28;95859;-42
2021/05/14 07:47:17;;;;;;;1.95;0.75;;;18.30;72.40;;;;;;4985907;28;95899;-42
2021/05/14 07:49:47;;;;;;;3.50;1.45;;;18.30;72.20;;;;;;4969476;28;96566;-42
2021/05/14 07:52:18;;;;;;;3.30;1.35;;;18.30;72.20;;;;;;4991292;28;95941;-42
2021/05/14 07:54:51;;;;;;;1.90;1.50;;;18.20;72.60;;;;;;4989671;28;95725;-42
2021/05/14 07:57:22;;;;;;;2.92;1.25;;;18.20;71.90;;;;;;4992116;28;95931;-42
2021/05/14 07:59:55;;;;;;;3.03;1.35;;;18.10;71.20;;;;;;4988016;28;95772;-42
2021/05/14 08:02:26;;;;;;;2.22;1.17;;;18.00;71.60;;;;;;4989621;28;96019;-42
2021/05/14 08:04:56;;;;;;;2.35;1.05;;;18.00;72.00;;;;;;4989580;28;97916;-42
2021/05/14 08:07:29;;;;;;;4.07;1.33;;;18.00;72.10;;;;;;4992697;28;96031;-42
2021/05/14 08:10:00;;;;;;;2.55;1.48;;;17.90;72.00;;;;;;4989150;28;95942;-42
2021/05/14 08:12:50;;;;;;;2.33;1.48;;;17.90;72.00;;;;;;4991884;28;95900;-42
2021/05/14 08:15:22;;;;;;;6.45;2.05;;;18.00;72.10;;;;;;4984415;28;101558;-42
2021/05/14 08:17:53;;;;;;;;;;;17.90;72.00;;;;;;4991061;28;95973;-43
2021/05/14 08:20:27;;;;;;;4.13;2.00;;;17.80;72.00;;;;;;4990025;28;96148;-42
2021/05/14 08:23:00;;;;;;;2.65;1.63;;;17.80;72.10;;;;;;4992124;28;95198;-42
2021/05/14 08:25:31;;;;;;;2.80;1.30;;;17.80;72.20;;;;;;4989527;28;95827;-44
2021/05/14 08:28:04;;;;;;;4.72;2.30;;;17.70;72.20;;;;;;4990363;28;96416;-44
2021/05/14 08:30:42;;;;;;;2.33;1.73;;;17.70;72.30;;;;;;4982987;28;95445;-43
2021/05/14 08:33:13;;;;;;;2.58;1.80;;;17.60;72.40;;;;;;4990501;28;95895;-42
2021/05/14 08:35:43;;;;;;;2.65;1.80;;;17.60;72.50;;;;;;4988649;28;95886;-42
2021/05/14 08:38:13;;;;;;;2.75;2.03;;;17.60;72.50;;;;;;4991377;28;96156;-42
2021/05/14 08:40:43;;;;;;;3.17;1.80;;;17.60;72.50;;;;;;4991027;28;95935;-42
2021/05/14 08:43:16;;;;;;;3.22;1.95;;;17.50;72.60;;;;;;4990763;28;95712;-42
2021/05/14 08:45:47;;;;;;;3.65;1.95;;;17.50;72.80;;;;;;4969053;28;97614;-42
2021/05/14 08:48:18;;;;;;;4.32;1.90;;;17.50;72.90;;;;;;4987320;28;96530;-43
2021/05/14 08:50:49;;;;;;;5.32;1.90;;;17.40;72.90;;;;;;4992315;28;95304;-43
2021/05/14 08:53:44;;;;;;;3.50;1.80;;;17.40;73.00;;;;;;4991429;28;95596;-42
2021/05/14 08:56:17;;;;;;;3.75;1.92;;;17.40;73.00;;;;;;4992924;28;95565;-43
2021/05/14 08:58:48;;;;;;;2.75;1.75;;;17.40;73.10;;;;;;4989765;28;97022;-43
2021/05/14 09:01:20;;;;;;;4.25;2.35;;;17.30;73.00;;;;;;4987942;28;95573;-42
2021/05/14 09:04:09;;;;;;;3.75;2.10;;;17.30;73.10;;;;;;4988116;28;95441;-42
2021/05/14 09:06:41;;;;;;;3.78;2.22;;;17.30;73.20;;;;;;4990535;28;95484;-42
2021/05/14 09:09:13;;;;;;;4.55;2.40;;;17.30;73.30;;;;;;4989811;28;96071;-42
2021/05/14 09:11:52;;;;;;;6.05;2.58;;;17.20;73.30;;;;;;4991602;28;95414;-42
2021/05/14 09:14:42;;;;;;;4.55;2.90;;;17.20;73.40;;;;;;4988140;28;95895;-42
2021/05/14 09:17:14;;;;;;;3.22;2.00;;;17.10;73.40;;;;;;4985575;28;95489;-42
2021/05/14 09:19:48;;;;;;;3.85;2.00;;;17.00;73.50;;;;;;4987900;28;95948;-42
2021/05/14 09:22:22;;;;;;;3.17;2.22;;;17.10;73.60;;;;;;5004456;28;97349;-42
2021/05/14 09:25:02;;;;;;;5.05;2.25;;;17.10;73.60;;;;;;4990386;28;95135;-41
2021/05/14 09:27:34;;;;;;;5.38;2.60;;;17.00;73.60;;;;;;4991151;28;95721;-42
2021/05/14 09:30:10;;;;;;;2.63;2.20;;;17.00;73.70;;;;;;4986929;28;96508;-42
2021/05/14 09:32:42;;;;;;;2.28;2.08;;;17.00;73.70;;;;;;4989420;28;95834;-42
2021/05/14 09:35:14;;;;;;;2.80;2.10;;;16.90;73.80;;;;;;4988685;28;95295;-42
2021/05/14 09:37:51;;;;;;;4.85;2.92;;;16.90;73.80;;;;;;4989953;28;95745;-42
2021/05/14 09:40:24;;;;;;;2.95;2.22;;;16.90;73.80;;;;;;4985891;28;95823;-42
2021/05/14 09:43:03;;;;;;;3.75;2.20;;;16.80;73.90;;;;;;4990486;28;95973;-42
2021/05/14 09:45:35;;;;;;;3.08;2.30;;;16.80;73.90;;;;;;4983519;28;97172;-42
2021/05/14 09:48:18;;;;;;;2.97;1.80;;;16.80;74.00;;;;;;4991282;28;95803;-41
2021/05/14 09:50:50;;;;;;;3.97;2.63;;;16.80;74.10;;;;;;4989664;28;98256;-42
2021/05/14 09:53:27;;;;;;;2.55;1.98;;;16.80;74.10;;;;;;4991035;28;95435;-42
2021/05/14 09:56:04;;;;;;;3.97;1.95;;;16.70;74.10;;;;;;4987563;28;95764;-42
2021/05/14 09:58:40;;;;;;;3.45;2.30;;;16.80;74.20;;;;;;4991264;28;95960;-42
2021/05/14 10:01:13;;;;;;;3.25;2.17;;;16.70;74.20;;;;;;4984505;28;95926;-42
2021/05/14 10:03:49;;;;;;;4.50;2.70;;;16.70;74.20;;;;;;4990119;28;95731;-42
2021/05/14 10:06:27;;;;;;;3.92;1.95;;;16.70;74.20;;;;;;4956811;28;95310;-42
2021/05/14 10:09:07;;;;;;;3.60;1.75;;;16.70;74.10;;;;;;4991667;28;95698;-43
2021/05/14 10:11:38;;;;;;;4.35;2.33;;;16.70;74.30;;;;;;4988020;28;96479;-41
2021/05/14 10:14:08;;;;;;;3.30;2.17;;;16.60;74.20;;;;;;4990468;28;95829;-42
2021/05/14 10:16:39;;;;;;;3.40;2.10;;;16.60;74.40;;;;;;4983978;28;97677;-42
2021/05/14 10:19:12;;;;;;;3.35;2.35;;;16.60;74.40;;;;;;4987386;28;95333;-42
2021/05/14 10:21:45;;;;;;;2.80;1.92;;;16.60;74.40;;;;;;4986924;28;95989;-43
2021/05/14 10:24:41;;;;;;;4.22;2.25;;;16.60;74.30;;;;;;4989576;28;95564;-42
2021/05/14 10:27:23;;;;;;;4.00;2.88;;;16.60;74.50;;;;;;4985332;28;95887;-42
2021/05/14 10:29:57;;;;;;;3.05;1.85;;;16.50;74.50;;;;;;4988524;28;95780;-42
2021/05/14 10:32:46;;;;;;;3.63;1.70;;;16.50;74.50;;;;;;4984462;28;95864;-43
2021/05/14 10:35:31;;;;;;;4.35;2.28;;;16.50;74.50;;;;;;4986376;28;95620;-42
2021/05/14 10:38:04;;;;;;;3.47;2.20;;;16.50;74.50;;;;;;4986973;28;95658;-42
2021/05/14 10:40:35;;;;;;;4.53;1.92;;;16.60;74.50;;;;;;4986232;28;95721;-42
2021/05/14 10:43:09;;;;;;;2.07;1.37;;;16.60;74.50;;;;;;4971455;28;96753;-42
2021/05/14 10:45:45;;;;;;;2.28;2.08;;;16.50;74.40;;;;;;4982051;28;102424;-42
2021/05/14 10:48:18;;;;;;;2.60;1.83;;;16.60;74.40;;;;;;4990226;28;96221;-42
2021/05/14 10:50:58;;;;;;;2.85;1.85;;;16.50;74.30;;;;;;4991406;28;95851;-42
2021/05/14 10:53:48;;;;;;;3.30;1.83;;;16.60;74.50;;;;;;4985601;28;96140;-42
2021/05/14 10:56:21;;;;;;;3.60;1.63;;;16.60;74.40;;;;;;4990236;28;95879;-42
2021/05/14 10:59:03;;;;;;;2.50;2.03;;;16.50;74.40;;;;;;4991029;28;95284;-42
2021/05/14 11:01:45;;;;;;;3.97;1.98;;;16.60;74.50;;;;;;4981486;28;95848;-42
2021/05/14 11:04:15;;;;;;;2.20;1.55;;;16.60;74.60;;;;;;4971072;28;98879;-42
2021/05/14 11:06:53;;;;;;;2.97;1.88;;;16.50;74.70;;;;;;4988563;28;95706;-41
2021/05/14 11:09:27;;;;;;;4.15;1.77;;;16.50;74.50;;;;;;4992867;28;95418;-42
2021/05/14 11:12:05;;;;;;;3.55;1.80;;;16.50;74.60;;;;;;4989225;28;95515;-41
2021/05/14 11:14:46;;;;;;;3.47;1.67;;;16.50;74.60;;;;;;4988127;28;95952;-42
2021/05/14 11:17:22;;;;;;;4.38;1.80;;;16.50;74.60;;;;;;4984655;28;97639;-42
2021/05/14 11:19:56;;;;;;;3.13;1.80;;;16.50;74.80;;;;;;4990578;28;96423;-42
2021/05/14 11:22:37;;;;;;;4.30;1.63;;;16.40;74.80;;;;;;4986531;28;95369;-43
2021/05/14 11:25:17;;;;;;;2.95;1.65;;;16.50;74.80;;;;;;5004801;28;96121;-42
2021/05/14 11:27:55;;;;;;;4.17;2.47;;;16.50;74.90;;;;;;4988283;28;96018;-42
2021/05/14 11:30:27;;;;;;;3.95;2.22;;;16.50;74.90;;;;;;4988127;28;96517;-49
2021/05/14 11:33:02;;;;;;;2.53;1.88;;;16.40;75.00;;;;;;4988378;28;96468;-47
2021/05/14 11:35:33;;;;;;;3.85;2.38;;;16.40;75.20;;;;;;4987895;28;95849;-47
2021/05/14 11:38:05;;;;;;;;;;;16.40;75.30;;;;;;4987234;28;95956;-47
2021/05/14 11:40:43;;;;;;;3.00;2.33;;;16.30;75.50;;;;;;4991837;28;95601;-47
2021/05/14 11:43:17;;;;;;;3.90;2.20;;;16.30;75.80;;;;;;4985980;28;95273;-47
2021/05/14 11:45:49;;;;;;;4.22;2.22;;;16.30;76.10;;;;;;4986846;28;96386;-47
2021/05/14 11:48:32;;;;;;;3.50;2.50;;;16.30;75.90;;;;;;4980761;28;95907;-47
2021/05/14 11:51:05;;;;;;;5.43;2.40;;;16.20;76.00;;;;;;4989814;28;95792;-48
2021/05/14 11:53:38;;;;;;;4.40;2.63;;;16.20;76.10;;;;;;4969666;28;96094;-48
2021/05/14 11:56:11;;;;;;;4.93;2.65;;;16.10;76.30;;;;;;4991992;28;95329;-48
2021/05/14 11:58:44;;;;;;;2.83;1.95;;;16.10;76.30;;;;;;4987982;28;96187;-48
2021/05/14 12:01:16;;;;;;;5.28;2.10;;;16.10;76.20;;;;;;4988184;28;95804;-47
2021/05/14 12:03:56;;;;;;;3.15;2.20;;;16.10;76.60;;;;;;4988165;28;95776;-50
2021/05/14 12:06:26;;;;;;;3.35;2.65;;;16.00;76.50;;;;;;4990385;28;96636;-48
2021/05/14 12:08:57;;;;;;;4.47;2.45;;;16.00;76.50;;;;;;4986651;28;95830;-48
2021/05/14 12:11:30;;;;;;;3.35;2.03;;;16.00;76.60;;;;;;4990695;28;95275;-42
2021/05/14 12:14:01;;;;;;;3.30;2.38;;;16.00;76.90;;;;;;4989922;28;95309;-42
2021/05/14 12:16:37;;;;;;;4.85;2.78;;;16.00;76.80;;;;;;4987070;28;95892;-42
2021/05/14 12:19:09;;;;;;;3.60;2.78;;;16.10;76.90;;;;;;4991657;28;95706;-41
2021/05/14 12:21:40;;;;;;;3.83;2.50;;;16.20;76.80;;;;;;4988604;28;95282;-42
2021/05/14 12:24:17;;;;;;;3.58;2.50;;;16.20;76.40;;;;;;5004601;28;95765;-42
2021/05/14 12:26:49;;;;;;;5.03;2.85;;;16.10;76.40;;;;;;4985995;28;96467;-42
2021/05/14 12:29:30;;;;;;;5.40;2.92;;;16.00;76.40;;;;;;4970376;28;97633;-42
2021/05/14 12:32:05;;;;;;;4.03;2.78;;;16.00;76.60;;;;;;4983337;28;95849;-48
2021/05/14 12:34:35;;;;;;;3.97;2.72;;;16.00;76.80;;;;;;4970960;28;95876;-48
2021/05/14 12:37:08;;;;;;;3.80;2.65;;;15.90;76.80;;;;;;4972094;28;96267;-48
2021/05/14 12:39:48;;;;;;;4.15;2.28;;;15.90;76.90;;;;;;4991058;28;95789;-48
2021/05/14 12:42:34;;;;;;;3.50;2.17;;;15.80;76.80;;;;;;4987094;28;99264;-48
2021/05/14 12:45:09;;;;;;;3.42;2.72;;;15.80;76.80;;;;;;4990916;28;95847;-42
2021/05/14 12:47:43;;;;;;;3.67;2.40;;;15.80;76.80;;;;;;4988477;28;97532;-42
2021/05/14 12:50:24;;;;;;;3.42;2.40;;;15.80;76.80;;;;;;4970895;28;97392;-42
2021/05/14 12:52:57;;;;;;;3.22;2.30;;;15.80;76.80;;;;;;4992133;28;95796;-42
2021/05/14 12:55:41;;;;;;;4.18;2.35;;;15.80;76.90;;;;;;4975785;28;95994;-42
2021/05/14 12:58:13;;;;;;;3.63;2.63;;;15.70;77.00;;;;;;4989779;28;96007;-42
2021/05/14 13:00:45;;;;;;;3.85;1.98;;;15.70;76.90;;;;;;4985932;28;97106;-42
2021/05/14 13:03:27;;;;;;;3.70;2.88;;;15.70;77.00;;;;;;4990241;28;96007;-42
2021/05/14 13:06:00;;;;;;;4.07;2.50;;;15.70;77.10;;;;;;4990055;28;95660;-42
2021/05/14 13:08:42;;;;;;;2.97;2.20;;;15.70;77.10;;;;;;4989071;28;96047;-42
2021/05/14 13:11:13;;;;;;;3.40;2.22;;;15.60;77.20;;;;;;4990810;28;95663;-43
2021/05/14 13:13:44;;;;;;;3.92;2.33;;;15.70;77.20;;;;;;4988247;28;95661;-42
2021/05/14 13:16:19;;;;;;;3.72;2.38;;;15.60;77.10;;;;;;4985820;28;95984;-42
2021/05/14 13:18:56;;;;;;;2.38;2.05;;;15.60;77.10;;;;;;4988432;28;96065;-42
2021/05/14 13:21:27;;;;;;;6.63;2.50;;;15.70;77.40;;;;;;4972149;28;98011;-41
2021/05/14 13:24:00;;;;;;;3.00;2.22;;;15.60;77.30;;;;;;4987298;28;95912;-41
2021/05/14 13:26:31;;;;;;;3.58;2.40;;;15.60;77.30;;;;;;4990854;28;95640;-43